Time;durP1;ratioP1;P1;durP2;ratioP2;P2;SDS_P1;SDS_P2;PMS_P1;PMS_P2;Temp;Humidity;BMP_temperature;BMP_pressure;BME280_temperature;BME280_humidity;BME280_pressure;Samples;Min_cycle;Max_cycle;Signal;HPM_P1;HPM_P2
2022/04/09 00:02:05;;;;;;;0.60;0.60;;;;;;;;;;5023988;28;20040;-68
2022/04/09 00:04:31;;;;;;;1.23;0.60;;;;;;;;;;5023499;28;20033;-68
2022/04/09 00:06:56;;;;;;;1.15;0.60;;;;;;;;;;5023608;28;20029;-68
2022/04/09 00:09:22;;;;;;;1.40;0.60;;;;;;;;;;5021773;28;20029;-68
2022/04/09 00:11:48;;;;;;;0.50;0.50;;;;;;;;;;5023165;28;20099;-68
2022/04/09 00:14:13;;;;;;;0.75;0.43;;;;;;;;;;5023886;28;20041;-68
2022/04/09 00:16:38;;;;;;;0.45;0.45;;;;;;;;;;5023174;28;20047;-69
2022/04/09 00:19:05;;;;;;;0.93;0.55;;;;;;;;;;5023684;28;20099;-68
2022/04/09 00:21:31;;;;;;;0.50;0.50;;;;;;;;;;5021293;28;20044;-68
2022/04/09 00:23:57;;;;;;;0.93;0.60;;;;;;;;;;5022736;28;20038;-68
2022/04/09 00:26:23;;;;;;;2.08;0.43;;;;;;;;;;5022777;28;20041;-68
2022/04/09 00:28:48;;;;;;;1.75;0.50;;;;;;;;;;5021752;28;20039;-68
2022/04/09 00:31:14;;;;;;;0.90;0.43;;;;;;;;;;5019351;28;20033;-69
2022/04/09 00:33:39;;;;;;;0.30;0.30;;;;;;;;;;5004344;28;21247;-68
2022/04/09 00:36:05;;;;;;;0.40;0.40;;;;;;;;;;5021268;28;20048;-68
2022/04/09 00:38:31;;;;;;;0.63;0.63;;;;;;;;;;5022577;28;20029;-68
2022/04/09 00:40:57;;;;;;;1.95;0.60;;;;;;;;;;5022125;28;20038;-68
2022/04/09 00:43:23;;;;;;;1.20;0.60;;;;;;;;;;5020167;28;20033;-68
2022/04/09 00:45:49;;;;;;;3.63;0.60;;;;;;;;;;5021054;28;20485;-68
2022/04/09 00:48:16;;;;;;;0.65;0.40;;;;;;;;;;5021295;28;20478;-68
2022/04/09 00:50:41;;;;;;;1.70;0.60;;;;;;;;;;5021493;28;20502;-68
2022/04/09 00:53:09;;;;;;;2.25;0.43;;;;;;;;;;5021490;28;20529;-68
2022/04/09 00:58:20;;;;;;;0.20;0.20;;;;;;;;;;5022384;28;20533;-68
2022/04/09 01:00:47;;;;;;;1.67;0.55;;;;;;;;;;5021970;28;20041;-68
2022/04/09 01:03:17;;;;;;;1.02;0.43;;;;;;;;;;5022550;28;20405;-68
2022/04/09 01:05:43;;;;;;;0.80;0.60;;;;;;;;;;5020726;28;20091;-68
2022/04/09 01:08:09;;;;;;;1.60;0.90;;;;;;;;;;4999115;28;20025;-68
2022/04/09 01:10:36;;;;;;;1.73;0.80;;;;;;;;;;5021264;28;20029;-68
2022/04/09 01:13:02;;;;;;;0.60;0.40;;;;;;;;;;5022624;28;20032;-68
2022/04/09 01:15:27;;;;;;;4.15;0.80;;;;;;;;;;5019433;28;20038;-68
2022/04/09 01:17:53;;;;;;;2.80;0.82;;;;;;;;;;5022170;28;21169;-68
2022/04/09 01:20:21;;;;;;;3.28;0.73;;;;;;;;;;5020647;28;20034;-68
2022/04/09 01:22:49;;;;;;;0.60;0.50;;;;;;;;;;5020103;28;20099;-68
2022/04/09 01:25:16;;;;;;;1.55;0.47;;;;;;;;;;5020731;28;20033;-68
2022/04/09 01:27:43;;;;;;;0.45;0.45;;;;;;;;;;5018892;28;20120;-68
2022/04/09 01:30:11;;;;;;;0.90;0.50;;;;;;;;;;5019790;28;20409;-68
2022/04/09 01:32:36;;;;;;;0.82;0.40;;;;;;;;;;5021402;28;20048;-68
2022/04/09 01:35:03;;;;;;;0.95;0.43;;;;;;;;;;5022157;28;20609;-68
2022/04/09 01:37:31;;;;;;;4.07;0.47;;;;;;;;;;5018790;28;20041;-68
2022/04/09 01:39:58;;;;;;;0.28;0.28;;;;;;;;;;5020411;28;20040;-69
2022/04/09 01:42:26;;;;;;;0.30;0.28;;;;;;;;;;5020322;28;20040;-68
2022/04/09 01:44:53;;;;;;;0.30;0.30;;;;;;;;;;5020531;28;20033;-68
2022/04/09 01:47:19;;;;;;;0.60;0.35;;;;;;;;;;5021077;28;20033;-68
2022/04/09 01:49:44;;;;;;;0.20;0.20;;;;;;;;;;5018898;28;20062;-68
2022/04/09 01:52:10;;;;;;;0.20;0.20;;;;;;;;;;5019648;28;20107;-68
2022/04/09 01:54:36;;;;;;;2.25;0.40;;;;;;;;;;5020606;28;20410;-68
2022/04/09 01:57:01;;;;;;;0.20;0.20;;;;;;;;;;5003095;28;20125;-68
2022/04/09 01:59:27;;;;;;;0.30;0.25;;;;;;;;;;5019242;28;20072;-69
2022/04/09 02:01:54;;;;;;;0.20;0.20;;;;;;;;;;5019108;28;20534;-69
2022/04/09 02:04:21;;;;;;;0.20;0.20;;;;;;;;;;5021699;28;20030;-69
2022/04/09 02:06:48;;;;;;;0.30;0.30;;;;;;;;;;5020659;28;20052;-69
2022/04/09 02:09:14;;;;;;;0.35;0.22;;;;;;;;;;5020604;28;20041;-69
2022/04/09 02:11:42;;;;;;;0.30;0.30;;;;;;;;;;5017373;28;20542;-69
2022/04/09 02:14:11;;;;;;;0.30;0.30;;;;;;;;;;5020044;28;20161;-69
2022/04/09 02:16:38;;;;;;;0.55;0.25;;;;;;;;;;5019509;28;20512;-69
2022/04/09 02:19:04;;;;;;;0.20;0.20;;;;;;;;;;5019894;28;20478;-68
2022/04/09 02:21:30;;;;;;;0.63;0.30;;;;;;;;;;5019516;28;20056;-68
2022/04/09 02:23:56;;;;;;;0.52;0.38;;;;;;;;;;5019913;28;20124;-69
2022/04/09 02:26:22;;;;;;;0.30;0.30;;;;;;;;;;5020599;28;20509;-69
2022/04/09 02:28:49;;;;;;;0.50;0.50;;;;;;;;;;5019855;28;20512;-68
2022/04/09 02:31:17;;;;;;;1.75;0.40;;;;;;;;;;5018780;28;20037;-68
2022/04/09 02:33:46;;;;;;;0.32;0.20;;;;;;;;;;5016089;28;20038;-67
2022/04/09 02:36:13;;;;;;;0.20;0.20;;;;;;;;;;5016087;28;20029;-68
2022/04/09 02:38:39;;;;;;;0.30;0.30;;;;;;;;;;5014634;28;20120;-68
2022/04/09 02:41:06;;;;;;;0.20;0.20;;;;;;;;;;5014603;28;20080;-68
2022/04/09 02:43:33;;;;;;;0.20;0.20;;;;;;;;;;5013698;28;20483;-68
2022/04/09 02:45:59;;;;;;;0.20;0.20;;;;;;;;;;5014421;28;20034;-68
2022/04/09 02:48:24;;;;;;;0.20;0.20;;;;;;;;;;5014885;28;20734;-68
2022/04/09 02:50:51;;;;;;;0.30;0.30;;;;;;;;;;5014228;28;20037;-68
2022/04/09 02:53:20;;;;;;;0.30;0.30;;;;;;;;;;4998971;28;20482;-68
2022/04/09 02:55:46;;;;;;;0.30;0.30;;;;;;;;;;5012172;28;20033;-68
2022/04/09 02:58:12;;;;;;;0.20;0.20;;;;;;;;;;5016375;28;20037;-68
2022/04/09 03:00:40;;;;;;;0.50;0.50;;;;;;;;;;5013858;28;20033;-68
2022/04/09 03:03:06;;;;;;;0.45;0.38;;;;;;;;;;5014977;28;20029;-68
2022/04/09 03:05:45;;;;;;;0.50;0.50;;;;;;;;;;5012068;28;20374;-68
2022/04/09 03:08:10;;;;;;;0.40;0.40;;;;;;;;;;5012182;28;20037;-68
2022/04/09 03:10:35;;;;;;;0.50;0.50;;;;;;;;;;5014787;28;20548;-68
2022/04/09 03:13:04;;;;;;;0.70;0.70;;;;;;;;;;5014673;28;20049;-67
2022/04/09 03:15:29;;;;;;;0.50;0.50;;;;;;;;;;5015654;28;20025;-68
2022/04/09 03:17:55;;;;;;;0.75;0.75;;;;;;;;;;5012459;28;20037;-69
2022/04/09 03:20:23;;;;;;;0.57;0.57;;;;;;;;;;5014411;28;20030;-68
2022/04/09 03:22:49;;;;;;;0.85;0.85;;;;;;;;;;5011622;28;20044;-68
2022/04/09 03:25:35;;;;;;;0.95;0.95;;;;;;;;;;5014003;28;20103;-68
2022/04/09 03:28:01;;;;;;;0.50;0.50;;;;;;;;;;5014250;28;20033;-68
2022/04/09 03:30:27;;;;;;;0.77;0.77;;;;;;;;;;5014564;28;20526;-68
2022/04/09 03:32:54;;;;;;;0.88;0.88;;;;;;;;;;5016819;28;20048;-68
2022/04/09 03:35:25;;;;;;;1.05;1.05;;;;;;;;;;5003014;28;20132;-70
2022/04/09 03:37:53;;;;;;;0.70;0.70;;;;;;;;;;5002767;28;20033;-69
2022/04/09 03:40:24;;;;;;;0.85;0.85;;;;;;;;;;5017061;28;20144;-68
2022/04/09 03:42:52;;;;;;;0.70;0.70;;;;;;;;;;5018709;28;20148;-69
2022/04/09 03:45:18;;;;;;;3.22;0.90;;;;;;;;;;5002095;28;20044;-67
2022/04/09 03:47:44;;;;;;;0.93;0.93;;;;;;;;;;5018526;28;20042;-68
2022/04/09 03:50:14;;;;;;;0.75;0.75;;;;;;;;;;5016947;28;20039;-68
2022/04/09 03:52:40;;;;;;;1.10;1.10;;;;;;;;;;5018117;28;20060;-68
2022/04/09 03:55:07;;;;;;;1.17;1.17;;;;;;;;;;5018736;28;20651;-68
2022/04/09 03:57:32;;;;;;;2.13;2.00;;;;;;;;;;5018899;28;20116;-68
2022/04/09 03:59:58;;;;;;;1.27;1.17;;;;;;;;;;5018033;28;20033;-68
2022/04/09 04:02:26;;;;;;;2.35;2.10;;;;;;;;;;5016995;28;20029;-68
2022/04/09 04:04:52;;;;;;;1.17;1.10;;;;;;;;;;5018566;28;20047;-68
2022/04/09 04:07:23;;;;;;;1.88;1.77;;;;;;;;;;5018224;28;20041;-67
2022/04/09 04:09:49;;;;;;;2.10;1.90;;;;;;;;;;5021371;28;20029;-68
2022/04/09 04:12:15;;;;;;;1.60;1.50;;;;;;;;;;5020710;28;20099;-68
2022/04/09 04:14:41;;;;;;;2.72;2.53;;;;;;;;;;5021751;28;20057;-68
2022/04/09 04:17:07;;;;;;;2.17;1.98;;;;;;;;;;5021689;28;20049;-68
2022/04/09 04:19:35;;;;;;;1.52;1.42;;;;;;;;;;5020528;28;20517;-68
2022/04/09 04:22:01;;;;;;;2.08;1.98;;;;;;;;;;5005132;28;20485;-68
2022/04/09 04:24:28;;;;;;;2.58;2.17;;;;;;;;;;5020431;28;20482;-68
2022/04/09 04:26:54;;;;;;;1.33;1.23;;;;;;;;;;5021335;28;20029;-68
2022/04/09 04:29:22;;;;;;;1.35;1.25;;;;;;;;;;5021698;28;20090;-68
2022/04/09 04:31:48;;;;;;;2.30;2.20;;;;;;;;;;5020907;28;20033;-68
2022/04/09 04:34:13;;;;;;;1.98;1.88;;;;;;;;;;5020172;28;20756;-68
2022/04/09 04:36:42;;;;;;;2.25;2.05;;;;;;;;;;5020957;28;20831;-68
2022/04/09 04:39:09;;;;;;;2.05;1.85;;;;;;;;;;5021652;28;20865;-68
2022/04/09 04:41:34;;;;;;;2.58;2.38;;;;;;;;;;5021179;28;20116;-68
2022/04/09 04:44:00;;;;;;;2.58;2.38;;;;;;;;;;5021575;28;20034;-68
2022/04/09 04:46:34;;;;;;;2.67;2.47;;;;;;;;;;5019882;28;20034;-68
2022/04/09 04:49:00;;;;;;;2.40;2.22;;;;;;;;;;5021465;28;20120;-68
2022/04/09 04:51:26;;;;;;;2.90;2.70;;;;;;;;;;5020866;28;20800;-68
2022/04/09 04:53:52;;;;;;;4.43;3.05;;;;;;;;;;5020936;28;20033;-68
2022/04/09 04:56:18;;;;;;;3.00;2.80;;;;;;;;;;5019137;28;20037;-68
2022/04/09 04:58:48;;;;;;;5.80;3.40;;;;;;;;;;5021009;28;20135;-68
2022/04/09 05:01:15;;;;;;;2.08;1.65;;;;;;;;;;5020500;28;20041;-68
2022/04/09 05:03:45;;;;;;;2.00;1.75;;;;;;;;;;5021166;28;20033;-68
2022/04/09 05:06:23;;;;;;;3.58;3.28;;;;;;;;;;5019485;28;20034;-68
2022/04/09 05:08:51;;;;;;;2.33;2.10;;;;;;;;;;5021980;28;20048;-68
2022/04/09 05:11:26;;;;;;;2.70;2.50;;;;;;;;;;5021149;28;20033;-68
2022/04/09 05:13:51;;;;;;;1.48;1.38;;;;;;;;;;5022096;28;20143;-68
2022/04/09 05:16:19;;;;;;;2.22;2.13;;;;;;;;;;5020393;28;20052;-68
2022/04/09 05:18:55;;;;;;;2.85;2.33;;;;;;;;;;5003576;28;20029;-68
2022/04/09 05:21:20;;;;;;;2.70;2.50;;;;;;;;;;5021462;28;20032;-68
2022/04/09 05:23:46;;;;;;;3.10;2.65;;;;;;;;;;5020791;28;20040;-68
2022/04/09 05:26:12;;;;;;;2.38;2.17;;;;;;;;;;5012616;28;20056;-69
2022/04/09 05:28:39;;;;;;;5.15;2.88;;;;;;;;;;5015601;28;20033;-70
2022/04/09 05:31:05;;;;;;;4.43;3.03;;;;;;;;;;5017422;28;20037;-68
2022/04/09 05:33:30;;;;;;;4.50;3.92;;;;;;;;;;5020311;28;20037;-69
2022/04/09 05:35:57;;;;;;;5.32;4.57;;;;;;;;;;5019124;28;20119;-69
2022/04/09 05:38:24;;;;;;;5.20;3.50;;;;;;;;;;5017252;28;20925;-69
2022/04/09 05:40:50;;;;;;;2.20;2.10;;;;;;;;;;5015767;28;20057;-69
2022/04/09 05:43:19;;;;;;;2.95;2.60;;;;;;;;;;5019708;28;20087;-68
2022/04/09 05:45:47;;;;;;;7.50;4.53;;;;;;;;;;5018740;28;20073;-69
2022/04/09 05:48:15;;;;;;;6.90;4.25;;;;;;;;;;5018802;28;20034;-69
2022/04/09 05:50:49;;;;;;;9.05;4.07;;;;;;;;;;5017593;28;20556;-69
2022/04/09 05:53:16;;;;;;;4.28;3.05;;;;;;;;;;5018932;28;20485;-69
2022/04/09 05:55:42;;;;;;;2.83;2.63;;;;;;;;;;5019132;28;20041;-69
2022/04/09 05:58:08;;;;;;;3.50;2.72;;;;;;;;;;5015881;28;20120;-69
2022/04/09 06:00:37;;;;;;;4.80;4.10;;;;;;;;;;5015833;28;20069;-69
2022/04/09 06:03:16;;;;;;;3.75;3.10;;;;;;;;;;5016626;28;20124;-69
2022/04/09 06:05:41;;;;;;;3.80;3.47;;;;;;;;;;5018202;28;20044;-69
2022/04/09 06:08:15;;;;;;;3.42;3.13;;;;;;;;;;5018329;28;20029;-69
2022/04/09 06:10:41;;;;;;;3.88;3.55;;;;;;;;;;5017643;28;20036;-69
2022/04/09 06:13:06;;;;;;;5.30;4.13;;;;;;;;;;5015853;28;20034;-69
2022/04/09 06:15:32;;;;;;;4.55;2.95;;;;;;;;;;5019113;28;20044;-69
2022/04/09 06:18:06;;;;;;;3.00;2.70;;;;;;;;;;5025789;28;20835;-69
2022/04/09 06:20:32;;;;;;;4.78;3.80;;;;;;;;;;5017942;28;20112;-69
2022/04/09 06:22:59;;;;;;;7.18;5.53;;;;;;;;;;5017489;28;20517;-69
2022/04/09 06:25:26;;;;;;;4.03;3.63;;;;;;;;;;5017561;28;20034;-69
2022/04/09 06:27:51;;;;;;;4.40;4.00;;;;;;;;;;5018619;28;20045;-69
2022/04/09 06:30:18;;;;;;;4.22;3.28;;;;;;;;;;5016942;28;20067;-69
2022/04/09 06:32:53;;;;;;;5.28;4.10;;;;;;;;;;5019181;28;20579;-69
2022/04/09 06:35:19;;;;;;;5.97;4.15;;;;;;;;;;5017979;28;20489;-69
2022/04/09 06:37:45;;;;;;;4.70;3.92;;;;;;;;;;5018489;28;20044;-69
2022/04/09 06:40:13;;;;;;;7.60;4.55;;;;;;;;;;4998795;28;20050;-69
2022/04/09 06:42:40;;;;;;;7.05;4.57;;;;;;;;;;5024820;28;20734;-69
2022/04/09 06:45:21;;;;;;;6.40;4.88;;;;;;;;;;5016994;28;20037;-69
2022/04/09 06:48:06;;;;;;;3.90;3.45;;;;;;;;;;5018643;28;20484;-69
2022/04/09 06:50:37;;;;;;;4.13;3.72;;;;;;;;;;5018925;28;20111;-69
2022/04/09 06:53:03;;;;;;;2.65;2.15;;;;;;;;;;5019276;28;20418;-70
2022/04/09 06:55:31;;;;;;;3.60;3.28;;;;;;;;;;5003180;28;20465;-69
2022/04/09 06:58:01;;;;;;;6.82;4.45;;;;;;;;;;5017449;28;20029;-70
2022/04/09 07:00:32;;;;;;;5.15;4.38;;;;;;;;;;5018665;28;20043;-69
2022/04/09 07:02:58;;;;;;;5.60;4.50;;;;;;;;;;5019239;28;20053;-70
2022/04/09 07:05:23;;;;;;;6.95;4.65;;;;;;;;;;5020442;28;20455;-69
2022/04/09 07:07:49;;;;;;;6.60;4.05;;;;;;;;;;5018805;28;20060;-69
2022/04/09 07:10:15;;;;;;;4.82;3.55;;;;;;;;;;5018171;28;20402;-70
2022/04/09 07:12:41;;;;;;;4.68;3.83;;;;;;;;;;5019737;28;20060;-69
2022/04/09 07:15:07;;;;;;;6.53;5.25;;;;;;;;;;5020249;28;20048;-70
2022/04/09 07:17:33;;;;;;;6.53;5.30;;;;;;;;;;5020964;28;20134;-70
2022/04/09 07:20:00;;;;;;;4.32;3.33;;;;;;;;;;5018852;28;20958;-69
2022/04/09 07:22:26;;;;;;;3.35;3.05;;;;;;;;;;5019481;28;20076;-70
2022/04/09 07:24:53;;;;;;;4.22;3.25;;;;;;;;;;5019151;28;20045;-70
2022/04/09 07:27:18;;;;;;;3.55;3.25;;;;;;;;;;5019293;28;20068;-70
2022/04/09 07:29:44;;;;;;;4.88;3.60;;;;;;;;;;5018946;28;20069;-70
2022/04/09 07:32:09;;;;;;;6.00;3.53;;;;;;;;;;5019583;28;20029;-70
2022/04/09 07:34:35;;;;;;;5.55;4.60;;;;;;;;;;5020085;28;20496;-70
2022/04/09 07:37:00;;;;;;;3.90;3.28;;;;;;;;;;5020118;28;20132;-70
2022/04/09 07:39:25;;;;;;;4.30;3.75;;;;;;;;;;5018915;28;20033;-69
2022/04/09 07:41:51;;;;;;;5.00;3.83;;;;;;;;;;5017967;28;20033;-69
2022/04/09 07:44:17;;;;;;;5.55;4.20;;;;;;;;;;5024623;28;20037;-69
2022/04/09 07:46:43;;;;;;;8.27;5.43;;;;;;;;;;5023421;28;20064;-69
2022/04/09 07:49:08;;;;;;;4.93;4.43;;;;;;;;;;5019111;28;20037;-69
2022/04/09 07:51:33;;;;;;;5.80;4.30;;;;;;;;;;5019427;28;20040;-70
2022/04/09 07:53:59;;;;;;;3.92;3.13;;;;;;;;;;5019983;28;20037;-69
2022/04/09 07:56:24;;;;;;;5.97;4.32;;;;;;;;;;5020625;28;20052;-70
2022/04/09 07:58:50;;;;;;;6.00;4.05;;;;;;;;;;5020226;28;20037;-69
2022/04/09 08:01:15;;;;;;;6.03;4.30;;;;;;;;;;5018868;28;20103;-69
2022/04/09 08:03:41;;;;;;;4.90;4.43;;;;;;;;;;5019092;28;20045;-69
2022/04/09 08:06:06;;;;;;;4.70;4.18;;;;;;;;;;5019896;28;20060;-69
2022/04/09 08:08:32;;;;;;;8.80;6.57;;;;;;;;;;5022235;28;20615;-69
2022/04/09 08:10:58;;;;;;;5.47;4.32;;;;;;;;;;5021666;28;20034;-70
2022/04/09 08:13:24;;;;;;;6.47;5.03;;;;;;;;;;5018818;28;20052;-69
2022/04/09 08:15:49;;;;;;;5.38;4.05;;;;;;;;;;5003966;28;20056;-69
2022/04/09 08:18:15;;;;;;;4.63;3.22;;;;;;;;;;5021670;28;20033;-69
2022/04/09 08:20:41;;;;;;;3.80;2.95;;;;;;;;;;5021678;28;20151;-69
2022/04/09 08:23:07;;;;;;;5.97;3.70;;;;;;;;;;5020152;28;20038;-69
2022/04/09 08:25:32;;;;;;;3.95;3.35;;;;;;;;;;5020611;28;20044;-70
2022/04/09 08:28:00;;;;;;;4.82;3.78;;;;;;;;;;5021143;28;20037;-70
2022/04/09 08:30:26;;;;;;;3.90;3.40;;;;;;;;;;5021186;28;20044;-70
2022/04/09 08:32:52;;;;;;;3.80;3.40;;;;;;;;;;5021422;28;20045;-69
2022/04/09 08:35:19;;;;;;;4.38;3.50;;;;;;;;;;5002383;28;20160;-70
2022/04/09 08:37:55;;;;;;;5.47;4.50;;;;;;;;;;5018839;28;20098;-69
2022/04/09 08:40:21;;;;;;;6.10;4.20;;;;;;;;;;5019041;28;20073;-69
2022/04/09 08:42:48;;;;;;;4.70;3.45;;;;;;;;;;5019628;28;20076;-70
2022/04/09 08:45:15;;;;;;;6.93;3.40;;;;;;;;;;5021197;28;20033;-70
2022/04/09 08:47:44;;;;;;;3.88;3.47;;;;;;;;;;5017857;28;20045;-70
2022/04/09 08:50:12;;;;;;;3.60;2.65;;;;;;;;;;5021132;28;20537;-71
2022/04/09 08:52:39;;;;;;;5.80;3.60;;;;;;;;;;5020968;28;20046;-70
2022/04/09 08:55:06;;;;;;;3.33;3.08;;;;;;;;;;5020156;28;20029;-71
2022/04/09 08:57:34;;;;;;;7.40;4.22;;;;;;;;;;5019253;28;20035;-70
2022/04/09 09:00:06;;;;;;;6.40;4.90;;;;;;;;;;5020013;28;20129;-70
2022/04/09 09:02:34;;;;;;;;;;;;;;;;;;5021529;28;20383;-72
2022/04/09 09:05:00;;;;;;;3.00;2.80;;;;;;;;;;5020524;28;19917;-69
2022/04/09 09:07:25;;;;;;;2.78;2.53;;;;;;;;;;5021427;28;20043;-71
2022/04/09 09:09:52;;;;;;;3.25;2.97;;;;;;;;;;5020137;28;20033;-71
2022/04/09 09:12:30;;;;;;;4.60;2.33;;;;;;;;;;5020682;28;20061;-72
2022/04/09 09:14:57;;;;;;;3.88;2.75;;;;;;;;;;5021173;28;20045;-72
2022/04/09 09:17:29;;;;;;;3.75;2.13;;;;;;;;;;5020511;28;20049;-71
2022/04/09 09:19:55;;;;;;;3.10;2.50;;;;;;;;;;5019536;28;20037;-71
2022/04/09 09:22:21;;;;;;;4.10;3.33;;;;;;;;;;5020430;28;20513;-71
2022/04/09 09:25:03;;;;;;;3.00;2.22;;;;;;;;;;5021508;28;20045;-71
2022/04/09 09:27:28;;;;;;;4.38;2.92;;;;;;;;;;5019184;28;20022;-72
2022/04/09 09:29:55;;;;;;;4.53;2.53;;;;;;;;;;5021132;28;20483;-70
2022/04/09 09:32:29;;;;;;;2.83;1.90;;;;;;;;;;5019149;28;20025;-71
2022/04/09 09:35:01;;;;;;;2.30;2.10;;;;;;;;;;5020848;28;20165;-72
2022/04/09 09:37:28;;;;;;;1.95;1.75;;;;;;;;;;5022480;28;20523;-72
2022/04/09 09:39:54;;;;;;;2.15;1.95;;;;;;;;;;5020628;28;20095;-71
2022/04/09 09:42:25;;;;;;;3.72;2.08;;;;;;;;;;5020806;28;20433;-71
2022/04/09 09:44:51;;;;;;;3.15;2.00;;;;;;;;;;5022857;28;20075;-71
2022/04/09 09:47:17;;;;;;;2.03;1.85;;;;;;;;;;5021244;28;20591;-71
2022/04/09 09:49:47;;;;;;;4.82;2.75;;;;;;;;;;5020368;28;20083;-72
2022/04/09 09:52:13;;;;;;;4.07;2.40;;;;;;;;;;5019917;28;20538;-71
2022/04/09 09:54:54;;;;;;;3.33;2.22;;;;;;;;;;5021498;28;20040;-71
2022/04/09 09:57:20;;;;;;;1.55;1.40;;;;;;;;;;5018870;28;20087;-71
2022/04/09 09:59:46;;;;;;;2.17;1.42;;;;;;;;;;5019237;28;20052;-71
2022/04/09 10:02:17;;;;;;;2.08;1.30;;;;;;;;;;5019833;28;20021;-72
2022/04/09 10:04:43;;;;;;;1.83;1.38;;;;;;;;;;5017914;28;20022;-71
2022/04/09 10:07:09;;;;;;;1.58;1.48;;;;;;;;;;5021234;28;20048;-73
2022/04/09 10:09:34;;;;;;;4.45;1.65;;;;;;;;;;5018812;28;20029;-72
2022/04/09 10:12:02;;;;;;;4.03;1.50;;;;;;;;;;5019685;28;20049;-72
2022/04/09 10:14:30;;;;;;;3.42;1.70;;;;;;;;;;5019111;28;20045;-71
2022/04/09 10:16:58;;;;;;;2.45;1.67;;;;;;;;;;5021595;28;20446;-72
2022/04/09 10:19:25;;;;;;;1.52;1.20;;;;;;;;;;5020015;28;20144;-72
2022/04/09 10:21:51;;;;;;;1.70;1.58;;;;;;;;;;5020967;28;20847;-73
2022/04/09 10:24:23;;;;;;;7.68;1.60;;;;;;;;;;5022503;28;20036;-71
2022/04/09 10:26:49;;;;;;;4.22;1.75;;;;;;;;;;5018370;28;20045;-71
2022/04/09 10:29:15;;;;;;;2.00;1.40;;;;;;;;;;5019235;28;20043;-74
2022/04/09 10:31:51;;;;;;;1.75;1.35;;;;;;;;;;5018968;28;20128;-71
2022/04/09 10:34:17;;;;;;;1.40;1.30;;;;;;;;;;5019622;28;20041;-73
2022/04/09 10:36:46;;;;;;;1.38;1.27;;;;;;;;;;5020130;28;20064;-72
2022/04/09 10:39:40;;;;;;;2.63;1.40;;;;;;;;;;5021279;28;20489;-72
2022/04/09 10:42:07;;;;;;;1.90;1.63;;;;;;;;;;5020037;28;20389;-73
2022/04/09 10:44:52;;;;;;;1.58;1.48;;;;;;;;;;5021326;28;20211;-73
2022/04/09 10:47:18;;;;;;;4.28;1.83;;;;;;;;;;5018026;28;20038;-73
2022/04/09 10:50:02;;;;;;;2.22;1.80;;;;;;;;;;5018184;28;20045;-71
2022/04/09 10:52:28;;;;;;;3.17;1.40;;;;;;;;;;5020585;28;20079;-71
2022/04/09 10:55:12;;;;;;;2.10;1.90;;;;;;;;;;5020604;28;20048;-71
2022/04/09 10:57:45;;;;;;;1.45;1.30;;;;;;;;;;5020819;28;20410;-71
2022/04/09 11:00:23;;;;;;;4.75;2.60;;;;;;;;;;5019166;28;20064;-71
2022/04/09 11:03:15;;;;;;;1.77;1.55;;;;;;;;;;5020169;28;20552;-71
2022/04/09 11:05:42;;;;;;;1.33;1.23;;;;;;;;;;5020412;28;20037;-71
2022/04/09 11:08:10;;;;;;;2.15;1.50;;;;;;;;;;5018878;28;20033;-71
2022/04/09 11:10:36;;;;;;;1.50;1.40;;;;;;;;;;5017696;28;20091;-71
2022/04/09 11:13:03;;;;;;;3.05;1.50;;;;;;;;;;5019409;28;20033;-71
2022/04/09 11:15:29;;;;;;;1.60;1.50;;;;;;;;;;5018325;28;20037;-71
2022/04/09 11:18:01;;;;;;;2.33;1.60;;;;;;;;;;5021920;28;20045;-71
2022/04/09 11:20:30;;;;;;;2.15;1.50;;;;;;;;;;5021741;28;20029;-71
2022/04/09 11:22:56;;;;;;;4.85;1.58;;;;;;;;;;5023207;28;20033;-70
2022/04/09 11:25:23;;;;;;;0.80;0.80;;;;;;;;;;5023406;28;20107;-70
2022/04/09 11:27:51;;;;;;;1.50;1.40;;;;;;;;;;5023558;28;20056;-70
2022/04/09 11:30:17;;;;;;;5.07;1.05;;;;;;;;;;5022881;28;20584;-70
2022/04/09 11:32:45;;;;;;;1.67;1.48;;;;;;;;;;5021471;28;20046;-70
2022/04/09 11:35:11;;;;;;;1.65;1.55;;;;;;;;;;5023768;28;20490;-70
2022/04/09 11:37:42;;;;;;;3.30;1.55;;;;;;;;;;5022668;28;20068;-70
2022/04/09 11:40:09;;;;;;;2.43;1.70;;;;;;;;;;5023051;28;20036;-70
2022/04/09 11:42:45;;;;;;;5.82;2.05;;;;;;;;;;5021001;28;20073;-71
2022/04/09 11:45:33;;;;;;;2.40;1.40;;;;;;;;;;5023119;28;20033;-71
2022/04/09 11:48:01;;;;;;;3.35;1.77;;;;;;;;;;5022553;28;20036;-70
2022/04/09 11:50:31;;;;;;;2.22;1.58;;;;;;;;;;5022842;28;20044;-70
2022/04/09 11:52:57;;;;;;;2.08;1.50;;;;;;;;;;5022270;28;20038;-70
2022/04/09 11:55:22;;;;;;;2.60;1.30;;;;;;;;;;5021209;28;20029;-70
2022/04/09 11:57:53;;;;;;;7.65;2.72;;;;;;;;;;5021534;28;20044;-71
2022/04/09 12:00:23;;;;;;;2.30;1.70;;;;;;;;;;5020639;28;20091;-70
2022/04/09 12:02:49;;;;;;;1.52;1.27;;;;;;;;;;5022109;28;20088;-70
2022/04/09 12:05:15;;;;;;;3.00;1.60;;;;;;;;;;5020743;28;20041;-71
2022/04/09 12:07:43;;;;;;;2.35;1.58;;;;;;;;;;5020519;28;20029;-70
2022/04/09 12:10:29;;;;;;;2.70;1.08;;;;;;;;;;5022075;28;20285;-71
2022/04/09 12:12:56;;;;;;;1.08;0.90;;;;;;;;;;5023002;28;20471;-70
2022/04/09 12:15:33;;;;;;;1.48;1.08;;;;;;;;;;5022426;28;20073;-70
2022/04/09 12:18:00;;;;;;;3.60;0.95;;;;;;;;;;5022835;28;20094;-70
2022/04/09 12:20:36;;;;;;;1.60;1.50;;;;;;;;;;5023535;28;20037;-70
2022/04/09 12:23:05;;;;;;;1.73;1.30;;;;;;;;;;5022156;28;20034;-71
2022/04/09 12:25:38;;;;;;;1.30;1.17;;;;;;;;;;5023095;28;20482;-71
2022/04/09 12:28:05;;;;;;;0.95;0.95;;;;;;;;;;5019876;28;20037;-71
2022/04/09 12:30:42;;;;;;;4.20;1.48;;;;;;;;;;5021525;28;20041;-71
2022/04/09 12:33:12;;;;;;;4.35;1.10;;;;;;;;;;5023268;28;20055;-71
2022/04/09 12:35:38;;;;;;;3.05;1.60;;;;;;;;;;5023424;28;20474;-71
2022/04/09 12:38:04;;;;;;;2.72;1.73;;;;;;;;;;5021510;28;20049;-72
2022/04/09 12:40:31;;;;;;;3.35;1.63;;;;;;;;;;5023220;28;20056;-70
2022/04/09 12:42:56;;;;;;;2.35;1.90;;;;;;;;;;5022477;28;20104;-71
2022/04/09 12:45:27;;;;;;;2.95;1.10;;;;;;;;;;5021936;28;20155;-70
2022/04/09 12:47:58;;;;;;;5.00;1.48;;;;;;;;;;5022830;28;20701;-70
2022/04/09 12:50:30;;;;;;;4.03;1.42;;;;;;;;;;5022302;28;20175;-71
2022/04/09 12:53:00;;;;;;;;;;;;;;;;;;5022981;28;20092;-71
2022/04/09 12:55:26;;;;;;;1.75;1.55;;;;;;;;;;5022143;28;20309;-70
2022/04/09 12:57:53;;;;;;;1.13;0.70;;;;;;;;;;5022991;28;20120;-70
2022/04/09 13:00:20;;;;;;;2.28;1.10;;;;;;;;;;5020438;28;20037;-72
2022/04/09 13:02:47;;;;;;;5.70;1.50;;;;;;;;;;5021475;28;20041;-71
2022/04/09 13:05:15;;;;;;;1.77;1.30;;;;;;;;;;5023324;28;20021;-70
2022/04/09 13:07:40;;;;;;;5.15;1.02;;;;;;;;;;5022719;28;20103;-71
2022/04/09 13:10:08;;;;;;;1.80;1.40;;;;;;;;;;5021882;28;20030;-72
2022/04/09 13:12:34;;;;;;;3.13;1.45;;;;;;;;;;5022067;28;20040;-70
2022/04/09 13:14:59;;;;;;;3.45;0.98;;;;;;;;;;5021861;28;20033;-70
2022/04/09 13:17:25;;;;;;;6.13;1.40;;;;;;;;;;5023156;28;20041;-69
2022/04/09 13:19:51;;;;;;;2.45;1.15;;;;;;;;;;5022683;28;20041;-70
2022/04/09 13:22:16;;;;;;;2.50;1.23;;;;;;;;;;5021116;28;20038;-70
2022/04/09 13:24:42;;;;;;;1.27;1.17;;;;;;;;;;5017827;28;20041;-71
2022/04/09 13:27:08;;;;;;;2.00;1.13;;;;;;;;;;5022237;28;20443;-71
2022/04/09 13:29:34;;;;;;;4.50;1.48;;;;;;;;;;5022264;28;20029;-70
2022/04/09 13:32:00;;;;;;;3.20;1.42;;;;;;;;;;5022049;28;20033;-70
2022/04/09 13:34:25;;;;;;;3.45;1.52;;;;;;;;;;5019087;28;20040;-68
2022/04/09 13:36:51;;;;;;;2.78;1.23;;;;;;;;;;5021570;28;20034;-69
2022/04/09 13:39:17;;;;;;;6.47;0.90;;;;;;;;;;5021431;28;20057;-69
2022/04/09 13:41:44;;;;;;;1.35;0.90;;;;;;;;;;5020618;28;20041;-69
2022/04/09 13:44:09;;;;;;;1.88;1.25;;;;;;;;;;5018425;28;20037;-68
2022/04/09 13:46:35;;;;;;;1.83;0.95;;;;;;;;;;5016992;28;20071;-69
2022/04/09 13:49:00;;;;;;;2.30;1.20;;;;;;;;;;5021170;28;20037;-70
2022/04/09 13:51:26;;;;;;;2.15;1.20;;;;;;;;;;5020777;28;20608;-72
2022/04/09 13:53:52;;;;;;;1.73;1.10;;;;;;;;;;5019142;28;20037;-70
2022/04/09 13:56:18;;;;;;;8.13;1.30;;;;;;;;;;5018367;28;20044;-72
2022/04/09 13:58:43;;;;;;;4.05;1.33;;;;;;;;;;5021049;28;20033;-77
2022/04/09 14:01:09;;;;;;;2.33;0.90;;;;;;;;;;5018350;28;20448;-69
2022/04/09 14:03:34;;;;;;;1.38;0.80;;;;;;;;;;5019527;28;20037;-71
2022/04/09 14:06:00;;;;;;;2.95;1.10;;;;;;;;;;5018403;28;20037;-72
2022/04/09 14:08:26;;;;;;;5.85;1.10;;;;;;;;;;5020534;28;20091;-73
2022/04/09 14:10:52;;;;;;;0.88;0.88;;;;;;;;;;5021086;28;20041;-72
2022/04/09 14:13:17;;;;;;;2.00;1.00;;;;;;;;;;5021595;28;20908;-74
2022/04/09 14:15:43;;;;;;;1.45;0.77;;;;;;;;;;5020169;28;20398;-74
2022/04/09 14:18:11;;;;;;;1.48;0.68;;;;;;;;;;5018168;28;20041;-75
2022/04/09 14:20:37;;;;;;;1.35;0.90;;;;;;;;;;5019936;28;20401;-70
2022/04/09 14:23:03;;;;;;;3.50;0.90;;;;;;;;;;5018973;28;20025;-70
2022/04/09 14:25:29;;;;;;;1.25;0.80;;;;;;;;;;5021312;28;20037;-69
2022/04/09 14:27:56;;;;;;;1.70;0.80;;;;;;;;;;5019547;28;20502;-71
2022/04/09 14:30:22;;;;;;;1.00;0.60;;;;;;;;;;5018567;28;20039;-71
2022/04/09 14:32:47;;;;;;;5.65;1.40;;;;;;;;;;5020503;28;20124;-73
2022/04/09 14:35:15;;;;;;;2.55;1.10;;;;;;;;;;5021042;28;20049;-70
2022/04/09 14:37:41;;;;;;;0.82;0.73;;;;;;;;;;5020524;28;21177;-69
2022/04/09 14:40:07;;;;;;;1.88;1.35;;;;;;;;;;5019027;28;20028;-70
2022/04/09 14:42:33;;;;;;;2.20;1.40;;;;;;;;;;5020718;28;20379;-70
2022/04/09 14:44:58;;;;;;;1.75;1.00;;;;;;;;;;5019453;28;20040;-71
2022/04/09 14:47:24;;;;;;;2.55;1.30;;;;;;;;;;5020458;28;20069;-69
2022/04/09 14:49:51;;;;;;;1.42;0.70;;;;;;;;;;5019227;28;20056;-71